aviador You're here:

HEGN Decoded Metar

HURGHADA in EGYPT
Report Time2017-08-20 18:00:00
UTC Time2017-08-20 19:10:47
Flight Rules Old
Wind340° at 09 kt
W.Decomp.*RWY 34: 9.0 kt HW 0.6 kt LCW
W.Rank340° ranks 7
Current wind is below 340° avg. (11.8)
Visibility9999 m
Phenomena:N/A
Clouds:N/A
Expected CloudBase > 7,200 ft AGL from Temp-Dew spread
CeilingNone
Temp34°C (ISA +19)
Dew Point16°C (34% RH)
Heat Index34.0°C
AAT32.7°C
QNH1006 hPa
Density Alt2,694 ft
Elevation46 ft
Report Wrong Elevation
Raw Report
HEGN 201800Z 34009KT CAVOK 34/16 Q1006 NOSIG=

Extra information for HEGN:More info

Metar Taf Metar & Taf Last 4 Metars F.Rules Stats Wind Profile Meteogram Temp Stats Airport Information Weather charts Add Link Nearby VenuesMetar ALERT Operation Metar Decoded Social comments